sensor_id;sensor_type;location;lat;lon;timestamp;pressure;altitude;pressure_sealevel;temperature;humidity
1480;BME280;732;51.698;4.886;2022-10-13T00:01:30;101652.41;;;12.14;100.00
1480;BME280;732;51.698;4.886;2022-10-13T00:03:59;101621.78;;;12.11;100.00
1480;BME280;732;51.698;4.886;2022-10-13T00:06:29;101929.44;;;13.86;100.00
1480;BME280;732;51.698;4.886;2022-10-13T00:08:58;101810.78;;;13.27;100.00
1480;BME280;732;51.698;4.886;2022-10-13T00:11:28;101749.59;;;12.94;100.00
1480;BME280;732;51.698;4.886;2022-10-13T00:14:01;101692.97;;;12.65;100.00
1480;BME280;732;51.698;4.886;2022-10-13T00:16:35;101814.56;;;13.40;100.00
1480;BME280;732;51.698;4.886;2022-10-13T00:19:03;101971.66;;;14.32;100.00
1480;BME280;732;51.698;4.886;2022-10-13T00:21:33;101965.53;;;14.33;100.00
1480;BME280;732;51.698;4.886;2022-10-13T00:24:02;101749.78;;;13.02;100.00
1480;BME280;732;51.698;4.886;2022-10-13T00:26:30;101777.31;;;13.19;100.00
1480;BME280;732;51.698;4.886;2022-10-13T00:29:00;101944.75;;;14.05;100.00
1480;BME280;732;51.698;4.886;2022-10-13T00:31:30;101974.19;;;14.27;100.00
1480;BME280;732;51.698;4.886;2022-10-13T00:34:01;101711.53;;;12.74;100.00
1480;BME280;732;51.698;4.886;2022-10-13T00:36:30;101651.53;;;12.49;100.00
1480;BME280;732;51.698;4.886;2022-10-13T00:39:00;101748.19;;;13.07;100.00
1480;BME280;732;51.698;4.886;2022-10-13T00:41:29;101956.41;;;14.17;100.00
1480;BME280;732;51.698;4.886;2022-10-13T00:43:59;101945.78;;;14.13;100.00
1480;BME280;732;51.698;4.886;2022-10-13T00:46:31;101809.09;;;13.31;100.00
1480;BME280;732;51.698;4.886;2022-10-13T00:49:03;101886.28;;;13.76;100.00
1480;BME280;732;51.698;4.886;2022-10-13T00:51:39;101936.16;;;14.13;100.00
1480;BME280;732;51.698;4.886;2022-10-13T00:54:14;101935.56;;;14.26;100.00
1480;BME280;732;51.698;4.886;2022-10-13T00:56:45;101969.28;;;14.44;100.00
1480;BME280;732;51.698;4.886;2022-10-13T00:59:19;101971.03;;;14.45;100.00
1480;BME280;732;51.698;4.886;2022-10-13T01:01:52;101924.13;;;14.24;100.00
1480;BME280;732;51.698;4.886;2022-10-13T01:04:24;101786.47;;;13.36;100.00
1480;BME280;732;51.698;4.886;2022-10-13T01:06:55;101831.69;;;13.62;100.00
1480;BME280;732;51.698;4.886;2022-10-13T01:09:25;101969.25;;;14.43;100.00
1480;BME280;732;51.698;4.886;2022-10-13T01:12:11;101913.41;;;14.15;100.00
1480;BME280;732;51.698;4.886;2022-10-13T01:14:52;101969.41;;;14.50;100.00
1480;BME280;732;51.698;4.886;2022-10-13T01:17:29;101946.44;;;14.43;100.00
1480;BME280;732;51.698;4.886;2022-10-13T01:20:52;101915.72;;;14.41;100.00
1480;BME280;732;51.698;4.886;2022-10-13T01:27:11;101854.75;;;14.18;100.00
1480;BME280;732;51.698;4.886;2022-10-13T01:30:09;101904.50;;;14.51;100.00
1480;BME280;732;51.698;4.886;2022-10-13T01:33:09;101916.94;;;14.58;100.00
1480;BME280;732;51.698;4.886;2022-10-13T01:36:05;101949.06;;;14.88;100.00
1480;BME280;732;51.698;4.886;2022-10-13T01:38:47;101937.25;;;14.65;100.00
1480;BME280;732;51.698;4.886;2022-10-13T01:41:27;101922.38;;;14.67;100.00
1480;BME280;732;51.698;4.886;2022-10-13T01:44:04;101756.91;;;13.86;100.00
1480;BME280;732;51.698;4.886;2022-10-13T01:46:38;101722.34;;;13.68;100.00
1480;BME280;732;51.698;4.886;2022-10-13T01:49:11;101797.63;;;14.09;100.00
1480;BME280;732;51.698;4.886;2022-10-13T01:51:41;101839.31;;;14.33;100.00
1480;BME280;732;51.698;4.886;2022-10-13T01:54:10;101875.97;;;14.72;100.00
1480;BME280;732;51.698;4.886;2022-10-13T01:56:38;101848.28;;;14.43;100.00
1480;BME280;732;51.698;4.886;2022-10-13T01:59:11;101865.03;;;14.49;100.00
1480;BME280;732;51.698;4.886;2022-10-13T02:01:57;101741.34;;;14.00;100.00
1480;BME280;732;51.698;4.886;2022-10-13T02:04:40;101921.16;;;14.96;100.00
1480;BME280;732;51.698;4.886;2022-10-13T02:07:19;101784.31;;;14.02;100.00
1480;BME280;732;51.698;4.886;2022-10-13T02:09:59;101856.34;;;14.53;100.00
1480;BME280;732;51.698;4.886;2022-10-13T02:12:33;101654.38;;;13.38;100.00
1480;BME280;732;51.698;4.886;2022-10-13T02:15:06;101869.72;;;14.65;100.00
1480;BME280;732;51.698;4.886;2022-10-13T02:17:38;101845.69;;;14.47;100.00
1480;BME280;732;51.698;4.886;2022-10-13T02:20:09;101854.75;;;14.61;100.00
1480;BME280;732;51.698;4.886;2022-10-13T02:22:42;101823.84;;;14.51;100.00
1480;BME280;732;51.698;4.886;2022-10-13T02:25:12;101865.75;;;14.90;100.00
1480;BME280;732;51.698;4.886;2022-10-13T02:27:41;101836.81;;;14.90;100.00
1480;BME280;732;51.698;4.886;2022-10-13T02:30:24;101809.13;;;14.61;100.00
1480;BME280;732;51.698;4.886;2022-10-13T02:32:56;101890.63;;;15.08;100.00
1480;BME280;732;51.698;4.886;2022-10-13T02:35:25;101715.94;;;13.97;100.00
1480;BME280;732;51.698;4.886;2022-10-13T02:38:00;101702.53;;;13.84;100.00
1480;BME280;732;51.698;4.886;2022-10-13T02:40:29;101863.88;;;14.83;100.00
1480;BME280;732;51.698;4.886;2022-10-13T02:42:58;101856.63;;;14.70;100.00
1480;BME280;732;51.698;4.886;2022-10-13T02:45:27;101615.78;;;13.34;100.00
1480;BME280;732;51.698;4.886;2022-10-13T02:47:57;101587.66;;;13.29;100.00
1480;BME280;732;51.698;4.886;2022-10-13T02:50:26;101895.88;;;15.07;100.00
1480;BME280;732;51.698;4.886;2022-10-13T02:52:58;101900.31;;;15.08;100.00
1480;BME280;732;51.698;4.886;2022-10-13T02:55:27;101899.28;;;15.00;100.00
1480;BME280;732;51.698;4.886;2022-10-13T02:57:58;101836.97;;;14.48;100.00
1480;BME280;732;51.698;4.886;2022-10-13T03:00:27;101762.84;;;14.24;100.00
1480;BME280;732;51.698;4.886;2022-10-13T03:02:57;101761.13;;;14.26;100.00
1480;BME280;732;51.698;4.886;2022-10-13T03:05:26;101851.34;;;14.67;100.00
1480;BME280;732;51.698;4.886;2022-10-13T03:07:54;101776.41;;;14.45;100.00
1480;BME280;732;51.698;4.886;2022-10-13T03:10:23;101664.91;;;13.86;100.00
1480;BME280;732;51.698;4.886;2022-10-13T03:12:55;101840.97;;;14.77;100.00
1480;BME280;732;51.698;4.886;2022-10-13T03:15:27;101607.22;;;13.45;100.00
1480;BME280;732;51.698;4.886;2022-10-13T03:17:59;101608.97;;;13.44;100.00
1480;BME280;732;51.698;4.886;2022-10-13T03:20:28;101888.38;;;15.31;100.00
1480;BME280;732;51.698;4.886;2022-10-13T03:22:57;101883.31;;;15.42;100.00
1480;BME280;732;51.698;4.886;2022-10-13T03:25:25;101871.06;;;15.42;100.00
1480;BME280;732;51.698;4.886;2022-10-13T03:27:54;101784.03;;;14.82;100.00
1480;BME280;732;51.698;4.886;2022-10-13T03:30:23;101762.28;;;14.92;100.00
1480;BME280;732;51.698;4.886;2022-10-13T03:32:52;101807.53;;;15.25;100.00
1480;BME280;732;51.698;4.886;2022-10-13T03:35:22;101797.91;;;15.27;100.00
1480;BME280;732;51.698;4.886;2022-10-13T03:37:51;101753.69;;;15.05;100.00
1480;BME280;732;51.698;4.886;2022-10-13T03:40:22;101527.31;;;13.83;100.00
1480;BME280;732;51.698;4.886;2022-10-13T03:42:53;101826.59;;;15.66;100.00
1480;BME280;732;51.698;4.886;2022-10-13T03:45:22;101675.19;;;14.76;100.00
1480;BME280;732;51.698;4.886;2022-10-13T03:47:53;101774.63;;;15.58;100.00
1480;BME280;732;51.698;4.886;2022-10-13T03:50:23;101724.97;;;15.22;100.00
1480;BME280;732;51.698;4.886;2022-10-13T03:52:53;101815.03;;;15.57;100.00
1480;BME280;732;51.698;4.886;2022-10-13T03:55:21;101797.75;;;15.17;100.00
1480;BME280;732;51.698;4.886;2022-10-13T03:57:50;101730.34;;;14.70;100.00
1480;BME280;732;51.698;4.886;2022-10-13T04:00:19;101767.38;;;14.82;100.00
1480;BME280;732;51.698;4.886;2022-10-13T04:02:50;101757.66;;;14.76;100.00
1480;BME280;732;51.698;4.886;2022-10-13T04:05:18;101790.38;;;14.93;100.00
1480;BME280;732;51.698;4.886;2022-10-13T04:07:48;101857.56;;;15.25;100.00
1480;BME280;732;51.698;4.886;2022-10-13T04:10:24;101658.25;;;14.05;100.00
1480;BME280;732;51.698;4.886;2022-10-13T04:12:53;101751.34;;;14.67;100.00
1480;BME280;732;51.698;4.886;2022-10-13T04:15:21;101685.13;;;14.38;100.00
1480;BME280;732;51.698;4.886;2022-10-13T04:17:52;101686.94;;;14.42;100.00
1480;BME280;732;51.698;4.886;2022-10-13T04:20:21;101797.59;;;15.06;100.00
1480;BME280;732;51.698;4.886;2022-10-13T04:22:53;101753.44;;;14.87;100.00
1480;BME280;732;51.698;4.886;2022-10-13T04:25:21;101794.78;;;14.96;100.00
1480;BME280;732;51.698;4.886;2022-10-13T04:27:50;101806.19;;;14.95;100.00
1480;BME280;732;51.698;4.886;2022-10-13T04:30:19;101726.56;;;14.53;100.00
1480;BME280;732;51.698;4.886;2022-10-13T04:32:47;101719.66;;;14.58;100.00
1480;BME280;732;51.698;4.886;2022-10-13T04:35:16;101857.75;;;15.38;100.00
1480;BME280;732;51.698;4.886;2022-10-13T04:37:45;101678.31;;;14.52;100.00
1480;BME280;732;51.698;4.886;2022-10-13T04:40:15;101847.38;;;15.45;100.00
1480;BME280;732;51.698;4.886;2022-10-13T04:42:44;101730.13;;;14.56;100.00
1480;BME280;732;51.698;4.886;2022-10-13T04:45:13;101735.31;;;14.50;100.00
1480;BME280;732;51.698;4.886;2022-10-13T04:47:44;101749.47;;;14.60;100.00
1480;BME280;732;51.698;4.886;2022-10-13T04:50:13;101659.22;;;14.11;100.00
1480;BME280;732;51.698;4.886;2022-10-13T04:52:41;101750.69;;;14.81;100.00
1480;BME280;732;51.698;4.886;2022-10-13T04:55:10;101717.16;;;14.67;100.00
1480;BME280;732;51.698;4.886;2022-10-13T04:57:40;101739.22;;;14.76;100.00
1480;BME280;732;51.698;4.886;2022-10-13T05:00:10;101820.78;;;15.30;100.00
1480;BME280;732;51.698;4.886;2022-10-13T05:02:39;101830.50;;;15.36;100.00
1480;BME280;732;51.698;4.886;2022-10-13T05:05:09;101598.91;;;13.68;100.00
1480;BME280;732;51.698;4.886;2022-10-13T05:07:38;101764.53;;;14.68;100.00
1480;BME280;732;51.698;4.886;2022-10-13T05:10:07;101672.44;;;14.14;100.00
1480;BME280;732;51.698;4.886;2022-10-13T05:12:36;101757.31;;;14.57;100.00
1480;BME280;732;51.698;4.886;2022-10-13T05:15:07;101799.81;;;14.82;100.00
1480;BME280;732;51.698;4.886;2022-10-13T05:17:36;101816.59;;;14.86;100.00
1480;BME280;732;51.698;4.886;2022-10-13T05:20:09;101694.91;;;13.97;100.00
1480;BME280;732;51.698;4.886;2022-10-13T05:22:37;101610.44;;;13.78;100.00
1480;BME280;732;51.698;4.886;2022-10-13T05:25:07;101762.56;;;14.55;100.00
1480;BME280;732;51.698;4.886;2022-10-13T05:27:35;101822.56;;;14.77;100.00
1480;BME280;732;51.698;4.886;2022-10-13T05:30:09;101830.56;;;14.82;100.00
1480;BME280;732;51.698;4.886;2022-10-13T05:32:38;101828.16;;;14.97;100.00
1480;BME280;732;51.698;4.886;2022-10-13T05:35:08;101750.88;;;14.40;100.00
1480;BME280;732;51.698;4.886;2022-10-13T05:37:39;101701.44;;;14.20;100.00
1480;BME280;732;51.698;4.886;2022-10-13T05:40:09;101699.72;;;14.22;100.00
1480;BME280;732;51.698;4.886;2022-10-13T05:42:38;101673.34;;;14.18;100.00
1480;BME280;732;51.698;4.886;2022-10-13T05:45:11;101675.34;;;14.29;100.00
1480;BME280;732;51.698;4.886;2022-10-13T05:47:39;101639.06;;;14.10;100.00
1480;BME280;732;51.698;4.886;2022-10-13T05:50:08;101690.22;;;14.27;100.00
1480;BME280;732;51.698;4.886;2022-10-13T05:52:39;101761.34;;;14.90;100.00
1480;BME280;732;51.698;4.886;2022-10-13T05:55:10;101807.28;;;15.09;100.00
1480;BME280;732;51.698;4.886;2022-10-13T05:57:43;101810.13;;;15.24;100.00
1480;BME280;732;51.698;4.886;2022-10-13T06:00:17;101857.88;;;15.44;100.00
1480;BME280;732;51.698;4.886;2022-10-13T06:02:50;101825.16;;;15.31;100.00
1480;BME280;732;51.698;4.886;2022-10-13T06:05:23;101800.00;;;14.91;100.00
1480;BME280;732;51.698;4.886;2022-10-13T06:07:55;101650.72;;;13.77;100.00
1480;BME280;732;51.698;4.886;2022-10-13T06:10:25;101788.00;;;14.56;100.00
1480;BME280;732;51.698;4.886;2022-10-13T06:12:54;101827.84;;;14.79;100.00
1480;BME280;732;51.698;4.886;2022-10-13T06:15:26;101543.44;;;13.04;100.00
1480;BME280;732;51.698;4.886;2022-10-13T06:17:58;101674.47;;;13.83;100.00
1480;BME280;732;51.698;4.886;2022-10-13T06:20:30;101671.13;;;13.91;100.00
1480;BME280;732;51.698;4.886;2022-10-13T06:22:58;101640.41;;;13.89;100.00
1480;BME280;732;51.698;4.886;2022-10-13T06:25:27;101671.28;;;13.99;100.00
1480;BME280;732;51.698;4.886;2022-10-13T06:27:56;101816.63;;;14.89;100.00
1480;BME280;732;51.698;4.886;2022-10-13T06:30:27;101624.38;;;13.72;100.00
1480;BME280;732;51.698;4.886;2022-10-13T06:32:56;101702.47;;;14.27;100.00
1480;BME280;732;51.698;4.886;2022-10-13T06:35:25;101800.28;;;14.56;100.00
1480;BME280;732;51.698;4.886;2022-10-13T06:37:53;101829.09;;;15.00;100.00
1480;BME280;732;51.698;4.886;2022-10-13T06:40:22;101732.91;;;14.65;100.00
1480;BME280;732;51.698;4.886;2022-10-13T06:42:54;101556.56;;;13.50;100.00
1480;BME280;732;51.698;4.886;2022-10-13T06:45:28;101808.19;;;15.12;100.00
1480;BME280;732;51.698;4.886;2022-10-13T06:47:56;101772.84;;;14.95;100.00
1480;BME280;732;51.698;4.886;2022-10-13T06:50:25;101745.53;;;14.86;100.00
1480;BME280;732;51.698;4.886;2022-10-13T06:52:54;101745.59;;;14.92;100.00
1480;BME280;732;51.698;4.886;2022-10-13T06:55:23;101655.31;;;14.39;100.00
1480;BME280;732;51.698;4.886;2022-10-13T06:57:52;101720.94;;;14.85;100.00
1480;BME280;732;51.698;4.886;2022-10-13T07:00:21;101791.66;;;15.21;100.00
1480;BME280;732;51.698;4.886;2022-10-13T07:02:52;101724.72;;;15.05;100.00
1480;BME280;732;51.698;4.886;2022-10-13T07:05:20;101572.53;;;14.14;100.00
1480;BME280;732;51.698;4.886;2022-10-13T07:07:51;101635.25;;;14.46;100.00
1480;BME280;732;51.698;4.886;2022-10-13T07:10:20;101772.56;;;15.37;100.00
1480;BME280;732;51.698;4.886;2022-10-13T07:12:49;101718.63;;;15.08;100.00
1480;BME280;732;51.698;4.886;2022-10-13T07:15:18;101781.50;;;15.44;100.00
1480;BME280;732;51.698;4.886;2022-10-13T07:17:49;101817.97;;;15.78;100.00
1480;BME280;732;51.698;4.886;2022-10-13T07:20:23;101584.28;;;14.38;100.00
1480;BME280;732;51.698;4.886;2022-10-13T07:22:53;101646.31;;;14.82;100.00
1480;BME280;732;51.698;4.886;2022-10-13T07:25:27;101791.63;;;15.79;100.00
1480;BME280;732;51.698;4.886;2022-10-13T07:27:59;101793.34;;;15.77;100.00
1480;BME280;732;51.698;4.886;2022-10-13T07:30:28;101603.72;;;14.49;100.00
1480;BME280;732;51.698;4.886;2022-10-13T07:33:00;101527.06;;;14.23;100.00
1480;BME280;732;51.698;4.886;2022-10-13T07:35:31;101762.38;;;15.60;100.00
1480;BME280;732;51.698;4.886;2022-10-13T07:38:00;101810.34;;;16.00;100.00
1480;BME280;732;51.698;4.886;2022-10-13T07:40:29;101720.06;;;15.48;100.00
1480;BME280;732;51.698;4.886;2022-10-13T07:42:58;101608.69;;;14.89;100.00
1480;BME280;732;51.698;4.886;2022-10-13T07:45:28;101680.88;;;15.07;100.00
1480;BME280;732;51.698;4.886;2022-10-13T07:47:59;101805.72;;;15.84;100.00
1480;BME280;732;51.698;4.886;2022-10-13T07:50:29;101480.22;;;13.95;100.00
1480;BME280;732;51.698;4.886;2022-10-13T07:52:59;101754.44;;;15.57;100.00
1480;BME280;732;51.698;4.886;2022-10-13T07:55:34;101720.59;;;15.24;100.00
1480;BME280;732;51.698;4.886;2022-10-13T07:58:04;101794.06;;;15.64;100.00
1480;BME280;732;51.698;4.886;2022-10-13T08:00:36;101813.53;;;15.77;100.00
1480;BME280;732;51.698;4.886;2022-10-13T08:03:10;101796.00;;;15.82;100.00
1480;BME280;732;51.698;4.886;2022-10-13T08:05:44;101815.72;;;16.14;100.00
1480;BME280;732;51.698;4.886;2022-10-13T08:08:18;101754.72;;;15.81;100.00
1480;BME280;732;51.698;4.886;2022-10-13T08:10:51;101810.56;;;16.23;100.00
1480;BME280;732;51.698;4.886;2022-10-13T08:13:24;101790.16;;;16.07;100.00
1480;BME280;732;51.698;4.886;2022-10-13T08:15:54;101800.03;;;16.24;100.00
1480;BME280;732;51.698;4.886;2022-10-13T08:18:24;101542.59;;;14.66;100.00
1480;BME280;732;51.698;4.886;2022-10-13T08:20:58;101739.72;;;15.77;100.00
1480;BME280;732;51.698;4.886;2022-10-13T08:23:50;101705.28;;;15.59;100.00
1480;BME280;732;51.698;4.886;2022-10-13T08:26:27;101583.44;;;15.04;100.00
1480;BME280;732;51.698;4.886;2022-10-13T08:28:57;101737.34;;;16.01;100.00
1480;BME280;732;51.698;4.886;2022-10-13T08:31:52;101802.13;;;16.54;100.00
1480;BME280;732;51.698;4.886;2022-10-13T08:34:22;101811.00;;;16.64;100.00
1480;BME280;732;51.698;4.886;2022-10-13T08:36:55;101572.28;;;15.26;100.00
1480;BME280;732;51.698;4.886;2022-10-13T08:39:28;101569.03;;;15.49;100.00
1480;BME280;732;51.698;4.886;2022-10-13T08:42:14;101554.13;;;15.51;100.00
1480;BME280;732;51.698;4.886;2022-10-13T08:44:51;101797.19;;;16.96;100.00
1480;BME280;732;51.698;4.886;2022-10-13T08:47:44;101542.75;;;15.55;100.00
1480;BME280;732;51.698;4.886;2022-10-13T08:50:19;101549.75;;;15.51;100.00
1480;BME280;732;51.698;4.886;2022-10-13T08:52:58;101456.25;;;15.11;100.00
1480;BME280;732;51.698;4.886;2022-10-13T08:55:32;101720.44;;;16.72;100.00
1480;BME280;732;51.698;4.886;2022-10-13T08:58:11;101539.47;;;15.83;100.00
1480;BME280;732;51.698;4.886;2022-10-13T09:00:42;101523.47;;;15.63;100.00
1480;BME280;732;51.698;4.886;2022-10-13T09:03:24;101583.44;;;15.85;100.00
1480;BME280;732;51.698;4.886;2022-10-13T09:06:08;101598.56;;;16.09;100.00
1480;BME280;732;51.698;4.886;2022-10-13T09:08:52;101509.59;;;15.81;100.00
1480;BME280;732;51.698;4.886;2022-10-13T09:11:27;101541.59;;;16.32;100.00
1480;BME280;732;51.698;4.886;2022-10-13T09:13:59;101591.81;;;16.47;100.00
1480;BME280;732;51.698;4.886;2022-10-13T09:16:35;101639.69;;;17.10;100.00
1480;BME280;732;51.698;4.886;2022-10-13T09:19:16;101754.53;;;17.92;100.00
1480;BME280;732;51.698;4.886;2022-10-13T09:21:46;101747.50;;;18.03;100.00
1480;BME280;732;51.698;4.886;2022-10-13T09:24:19;101509.19;;;16.59;100.00
1480;BME280;732;51.698;4.886;2022-10-13T09:27:05;101696.28;;;17.58;100.00
1480;BME280;732;51.698;4.886;2022-10-13T09:29:39;101743.09;;;17.93;100.00
1480;BME280;732;51.698;4.886;2022-10-13T09:32:15;101760.81;;;18.20;100.00
1480;BME280;732;51.698;4.886;2022-10-13T09:34:46;101639.81;;;17.41;100.00
1480;BME280;732;51.698;4.886;2022-10-13T09:37:20;101619.53;;;17.38;100.00
1480;BME280;732;51.698;4.886;2022-10-13T09:40:12;101620.38;;;17.34;100.00
1480;BME280;732;51.698;4.886;2022-10-13T09:42:41;101767.81;;;18.15;100.00
1480;BME280;732;51.698;4.886;2022-10-13T09:45:19;101577.22;;;17.22;100.00
1480;BME280;732;51.698;4.886;2022-10-13T09:47:53;101742.25;;;18.19;100.00
1480;BME280;732;51.698;4.886;2022-10-13T09:50:24;101743.13;;;18.07;100.00
1480;BME280;732;51.698;4.886;2022-10-13T09:53:14;101609.81;;;17.28;100.00
1480;BME280;732;51.698;4.886;2022-10-13T09:55:45;101756.34;;;18.13;100.00
1480;BME280;732;51.698;4.886;2022-10-13T09:58:24;101609.94;;;17.58;100.00
1480;BME280;732;51.698;4.886;2022-10-13T10:00:57;101714.91;;;18.30;100.00
1480;BME280;732;51.698;4.886;2022-10-13T10:03:30;101568.41;;;17.29;100.00
1480;BME280;732;51.698;4.886;2022-10-13T10:06:02;101705.22;;;18.25;100.00
1480;BME280;732;51.698;4.886;2022-10-13T10:08:37;101570.19;;;17.42;100.00
1480;BME280;732;51.698;4.886;2022-10-13T10:11:40;101569.31;;;17.38;100.00
1480;BME280;732;51.698;4.886;2022-10-13T10:14:16;101468.81;;;16.84;100.00
1480;BME280;732;51.698;4.886;2022-10-13T10:16:52;101480.31;;;17.08;100.00
1480;BME280;732;51.698;4.886;2022-10-13T10:19:28;101556.16;;;17.59;100.00
1480;BME280;732;51.698;4.886;2022-10-13T10:22:10;101661.13;;;18.49;100.00
1480;BME280;732;51.698;4.886;2022-10-13T10:24:50;101710.50;;;18.91;100.00
1480;BME280;732;51.698;4.886;2022-10-13T10:27:28;101479.50;;;17.67;100.00
1480;BME280;732;51.698;4.886;2022-10-13T10:30:03;101611.63;;;18.83;100.00
1480;BME280;732;51.698;4.886;2022-10-13T10:32:41;101637.13;;;19.13;100.00
1480;BME280;732;51.698;4.886;2022-10-13T10:35:14;101713.06;;;19.33;100.00
1480;BME280;732;51.698;4.886;2022-10-13T10:38:05;101698.94;;;19.27;100.00
1480;BME280;732;51.698;4.886;2022-10-13T10:40:49;101568.44;;;18.58;100.00
1480;BME280;732;51.698;4.886;2022-10-13T10:43:36;101541.88;;;18.85;100.00
1480;BME280;732;51.698;4.886;2022-10-13T10:46:16;101630.97;;;19.12;100.00
1480;BME280;732;51.698;4.886;2022-10-13T10:48:47;101690.81;;;19.70;100.00
1480;BME280;732;51.698;4.886;2022-10-13T10:51:29;101592.22;;;18.85;100.00
1480;BME280;732;51.698;4.886;2022-10-13T10:54:18;101697.19;;;19.15;100.00
1480;BME280;732;51.698;4.886;2022-10-13T10:56:55;101624.06;;;18.57;100.00
1480;BME280;732;51.698;4.886;2022-10-13T10:59:41;101550.84;;;18.27;100.00
1480;BME280;732;51.698;4.886;2022-10-13T11:02:38;101707.81;;;19.09;100.00
1480;BME280;732;51.698;4.886;2022-10-13T11:05:11;101463.63;;;17.46;100.00
1480;BME280;732;51.698;4.886;2022-10-13T11:07:57;101505.94;;;17.74;100.00
1480;BME280;732;51.698;4.886;2022-10-13T11:10:27;101443.34;;;17.16;100.00
1480;BME280;732;51.698;4.886;2022-10-13T11:13:16;101570.28;;;17.70;100.00
1480;BME280;732;51.698;4.886;2022-10-13T11:15:50;101541.13;;;17.37;100.00
1480;BME280;732;51.698;4.886;2022-10-13T11:18:59;101651.41;;;18.09;100.00
1480;BME280;732;51.698;4.886;2022-10-13T11:22:23;101594.97;;;17.72;100.00
1480;BME280;732;51.698;4.886;2022-10-13T11:25:03;101661.13;;;18.25;100.00
1480;BME280;732;51.698;4.886;2022-10-13T11:27:50;101684.06;;;18.47;100.00
1480;BME280;732;51.698;4.886;2022-10-13T11:30:47;101680.56;;;18.50;100.00
1480;BME280;732;51.698;4.886;2022-10-13T11:33:54;101678.78;;;18.56;100.00
1480;BME280;732;51.698;4.886;2022-10-13T11:36:45;101634.66;;;18.11;100.00
1480;BME280;732;51.698;4.886;2022-10-13T11:39:58;101642.56;;;17.98;100.00
1480;BME280;732;51.698;4.886;2022-10-13T11:42:58;101674.31;;;17.98;100.00
1480;BME280;732;51.698;4.886;2022-10-13T11:45:56;101501.41;;;16.92;100.00
1480;BME280;732;51.698;4.886;2022-10-13T11:48:56;101636.38;;;17.81;100.00
1480;BME280;732;51.698;4.886;2022-10-13T11:51:45;101498.78;;;17.11;100.00
1480;BME280;732;51.698;4.886;2022-10-13T11:54:26;101648.75;;;18.15;100.00
1480;BME280;732;51.698;4.886;2022-10-13T11:56:58;101669.00;;;17.90;100.00
1480;BME280;732;51.698;4.886;2022-10-13T11:59:30;101669.06;;;18.01;100.00
1480;BME280;732;51.698;4.886;2022-10-13T12:02:13;101507.59;;;17.13;100.00
1480;BME280;732;51.698;4.886;2022-10-13T12:05:05;101447.75;;;17.03;100.00
1480;BME280;732;51.698;4.886;2022-10-13T12:07:40;101526.16;;;17.41;100.00
1480;BME280;732;51.698;4.886;2022-10-13T12:10:18;101662.00;;;18.45;100.00
1480;BME280;732;51.698;4.886;2022-10-13T12:12:48;101558.81;;;17.98;100.00
1480;BME280;732;51.698;4.886;2022-10-13T12:15:33;101607.31;;;18.19;100.00
1480;BME280;732;51.698;4.886;2022-10-13T12:18:20;101571.16;;;17.83;100.00
1480;BME280;732;51.698;4.886;2022-10-13T12:20:54;101613.50;;;17.99;100.00
1480;BME280;732;51.698;4.886;2022-10-13T12:23:25;101562.38;;;17.90;100.00
1480;BME280;732;51.698;4.886;2022-10-13T12:25:54;101525.34;;;17.90;100.00
1480;BME280;732;51.698;4.886;2022-10-13T12:28:29;101655.81;;;18.72;100.00
1480;BME280;732;51.698;4.886;2022-10-13T12:30:59;101656.72;;;18.63;100.00
1480;BME280;732;51.698;4.886;2022-10-13T12:33:32;101554.41;;;18.09;100.00
1480;BME280;732;51.698;4.886;2022-10-13T12:36:12;101608.16;;;18.60;100.00
1480;BME280;732;51.698;4.886;2022-10-13T12:38:48;101622.25;;;18.75;100.00
1480;BME280;732;51.698;4.886;2022-10-13T12:41:21;101554.41;;;18.16;100.00
1480;BME280;732;51.698;4.886;2022-10-13T12:43:52;101510.34;;;17.89;100.00
1480;BME280;732;51.698;4.886;2022-10-13T12:46:38;101621.38;;;18.73;100.00
1480;BME280;732;51.698;4.886;2022-10-13T12:49:14;101504.94;;;18.34;100.00
1480;BME280;732;51.698;4.886;2022-10-13T12:51:45;101513.78;;;18.33;100.00
1480;BME280;732;51.698;4.886;2022-10-13T12:54:24;101549.97;;;18.42;100.00
1480;BME280;732;51.698;4.886;2022-10-13T12:56:57;101352.63;;;17.25;100.00
1480;BME280;732;51.698;4.886;2022-10-13T12:59:28;101591.41;;;18.53;100.00
1480;BME280;732;51.698;4.886;2022-10-13T13:02:00;101590.53;;;18.29;100.00
1480;BME280;732;51.698;4.886;2022-10-13T13:04:41;101617.03;;;18.50;100.00
1480;BME280;732;51.698;4.886;2022-10-13T13:07:29;101560.56;;;18.13;100.00
1480;BME280;732;51.698;4.886;2022-10-13T13:10:02;101639.94;;;18.39;100.00
1480;BME280;732;51.698;4.886;2022-10-13T13:12:32;101498.03;;;17.65;100.00
1480;BME280;732;51.698;4.886;2022-10-13T13:15:27;101545.63;;;17.88;100.00
1480;BME280;732;51.698;4.886;2022-10-13T13:18:30;101482.16;;;17.73;100.00
1480;BME280;732;51.698;4.886;2022-10-13T13:21:05;101533.25;;;18.05;100.00
1480;BME280;732;51.698;4.886;2022-10-13T13:23:33;101627.59;;;18.59;100.00
1480;BME280;732;51.698;4.886;2022-10-13T13:26:10;101427.50;;;17.17;100.00
1480;BME280;732;51.698;4.886;2022-10-13T13:28:43;101564.97;;;18.02;100.00
1480;BME280;732;51.698;4.886;2022-10-13T13:31:13;101370.28;;;16.92;100.00
1480;BME280;732;51.698;4.886;2022-10-13T13:33:42;101605.56;;;18.16;100.00
1480;BME280;732;51.698;4.886;2022-10-13T13:36:18;101580.00;;;17.82;100.00
1480;BME280;732;51.698;4.886;2022-10-13T13:38:51;101625.81;;;18.25;100.00
1480;BME280;732;51.698;4.886;2022-10-13T13:41:23;101630.25;;;18.29;100.00
1480;BME280;732;51.698;4.886;2022-10-13T13:44:00;101459.22;;;17.30;100.00
1480;BME280;732;51.698;4.886;2022-10-13T13:46:34;101628.50;;;18.22;100.00
1480;BME280;732;51.698;4.886;2022-10-13T13:49:12;101414.28;;;16.92;100.00
1480;BME280;732;51.698;4.886;2022-10-13T13:51:52;101619.66;;;18.30;100.00
1480;BME280;732;51.698;4.886;2022-10-13T13:54:34;101487.41;;;17.37;100.00